createdAt,value
2017-12-19T00:00:02.029Z,2.84
2017-12-19T00:02:28.544Z,2.84
2017-12-19T00:04:55.000Z,2.83
2017-12-19T00:07:21.435Z,2.84
2017-12-19T00:09:47.870Z,2.85
2017-12-19T00:12:14.406Z,2.75
2017-12-19T00:14:41.456Z,2.75
2017-12-19T00:17:07.993Z,2.68
2017-12-19T00:19:34.434Z,2.68
2017-12-19T00:22:00.986Z,2.66
2017-12-19T00:24:27.399Z,2.65
2017-12-19T00:26:53.833Z,2.62
2017-12-19T00:29:20.275Z,2.63
2017-12-19T00:31:47.396Z,2.61
2017-12-19T00:34:13.840Z,2.58
2017-12-19T00:36:40.257Z,2.58
2017-12-19T00:39:06.698Z,2.54
2017-12-19T00:41:33.157Z,2.54
2017-12-19T00:43:59.694Z,2.53
2017-12-19T00:46:26.128Z,2.52
2017-12-19T00:48:53.383Z,2.50
2017-12-19T00:51:19.920Z,2.53
2017-12-19T00:53:46.285Z,2.50
2017-12-19T00:56:12.686Z,2.49
2017-12-19T00:58:39.121Z,2.45
2017-12-19T01:01:05.651Z,2.46
2017-12-19T01:03:32.092Z,2.39
2017-12-19T01:05:59.244Z,2.42
2017-12-19T01:08:25.679Z,2.41
2017-12-19T01:10:52.195Z,2.45
2017-12-19T01:13:18.650Z,2.43
2017-12-19T01:15:44.983Z,2.43
2017-12-19T01:18:11.395Z,2.42
2017-12-19T01:20:37.955Z,2.44
2017-12-19T01:23:04.900Z,2.49
2017-12-19T01:25:31.398Z,2.37
2017-12-19T01:27:57.736Z,2.32
2017-12-19T01:30:24.211Z,2.44
2017-12-19T01:32:50.620Z,2.47
2017-12-19T01:35:16.975Z,2.48
2017-12-19T01:37:43.409Z,2.56
2017-12-19T01:40:10.646Z,2.39
2017-12-19T01:42:36.994Z,2.40
2017-12-19T01:45:03.431Z,2.49
2017-12-19T01:47:29.862Z,2.51
2017-12-19T01:49:56.230Z,2.51
2017-12-19T01:52:22.730Z,2.47
2017-12-19T01:54:49.272Z,2.51
2017-12-19T01:57:16.418Z,2.52
2017-12-19T01:59:42.853Z,2.57
2017-12-19T02:02:09.390Z,2.57
2017-12-19T02:04:35.817Z,2.56
2017-12-19T02:07:02.260Z,2.57
2017-12-19T02:09:28.675Z,2.61
2017-12-19T02:11:55.230Z,2.62
2017-12-19T02:14:22.213Z,2.65
2017-12-19T02:16:48.612Z,2.62
2017-12-19T02:19:14.943Z,2.61
2017-12-19T02:21:41.481Z,2.59
2017-12-19T02:24:07.915Z,2.63
2017-12-19T02:26:34.288Z,2.64
2017-12-19T02:29:00.683Z,2.67
2017-12-19T02:31:27.834Z,2.67
2017-12-19T02:33:54.203Z,2.65
2017-12-19T02:36:20.601Z,2.66
2017-12-19T02:38:46.933Z,2.64
2017-12-19T02:41:13.469Z,2.63
2017-12-19T02:43:39.904Z,2.61
2017-12-19T02:46:06.272Z,2.62
2017-12-19T02:48:33.490Z,2.62
2017-12-19T02:51:00.027Z,2.64
2017-12-19T02:53:26.462Z,2.64
2017-12-19T02:55:52.897Z,2.68
2017-12-19T02:58:19.331Z,2.67
2017-12-19T03:00:45.868Z,2.67
2017-12-19T03:03:12.234Z,2.65
2017-12-19T03:05:39.390Z,2.61
2017-12-19T03:08:05.786Z,2.61
2017-12-19T03:10:32.257Z,2.69
2017-12-19T03:12:58.655Z,2.70
2017-12-19T03:15:25.095Z,2.74
2017-12-19T03:17:51.524Z,2.75
2017-12-19T03:20:17.960Z,2.73
2017-12-19T03:22:45.109Z,2.77
2017-12-19T03:25:11.545Z,2.79
2017-12-19T03:27:37.982Z,2.79
2017-12-19T03:30:04.417Z,2.74
2017-12-19T03:32:30.850Z,2.65
2017-12-19T03:34:57.284Z,2.65
2017-12-19T03:37:23.717Z,2.57
2017-12-19T03:39:50.869Z,2.59
2017-12-19T03:42:17.406Z,2.59
2017-12-19T03:44:43.841Z,2.62
2017-12-19T03:47:10.209Z,2.66
2017-12-19T03:49:36.607Z,2.68
2017-12-19T03:52:03.143Z,2.57
2017-12-19T03:54:29.579Z,2.51
2017-12-19T03:56:56.834Z,2.60
2017-12-19T03:59:23.268Z,2.59
2017-12-19T04:01:49.805Z,2.56
2017-12-19T04:04:16.240Z,2.59
2017-12-19T04:06:42.674Z,2.52
2017-12-19T04:09:09.210Z,2.51
2017-12-19T04:11:35.747Z,2.55
2017-12-19T04:14:02.899Z,2.57
2017-12-19T04:16:29.333Z,2.59
2017-12-19T04:18:55.770Z,2.61
2017-12-19T04:21:22.238Z,2.59
2017-12-19T04:23:48.638Z,2.57
2017-12-19T04:26:15.071Z,2.43
2017-12-19T04:28:41.489Z,2.48
2017-12-19T04:31:08.633Z,2.47
2017-12-19T04:33:35.092Z,2.45
2017-12-19T04:36:01.533Z,2.39
2017-12-19T04:38:27.963Z,2.42
2017-12-19T04:40:54.498Z,2.38
2017-12-19T04:43:20.934Z,2.36
2017-12-19T04:45:47.367Z,2.48
2017-12-19T04:48:14.500Z,2.49
2017-12-19T04:50:41.057Z,2.53
2017-12-19T04:53:07.584Z,2.52
2017-12-19T04:55:34.027Z,2.55
2017-12-19T04:58:00.465Z,2.61
2017-12-19T05:00:26.897Z,2.57
2017-12-19T05:02:53.333Z,2.60
2017-12-19T05:05:20.468Z,2.66
2017-12-19T05:07:46.919Z,2.68
2017-12-19T05:10:13.359Z,2.73
2017-12-19T05:12:39.769Z,2.73
2017-12-19T05:15:06.211Z,2.59
2017-12-19T05:17:32.656Z,2.72
2017-12-19T05:19:59.089Z,2.74
2017-12-19T05:22:26.344Z,2.77
2017-12-19T05:24:52.779Z,2.77
2017-12-19T05:27:19.199Z,2.77
2017-12-19T05:29:45.649Z,2.77
2017-12-19T05:32:12.184Z,2.79
2017-12-19T05:34:38.619Z,2.80
2017-12-19T05:37:05.054Z,2.68
2017-12-19T05:39:32.206Z,2.67
2017-12-19T05:41:58.741Z,2.77
2017-12-19T05:44:25.177Z,2.76
2017-12-19T05:46:51.614Z,2.79
2017-12-19T05:49:18.052Z,2.86
2017-12-19T05:51:44.569Z,2.78
2017-12-19T05:54:10.916Z,2.87
2017-12-19T05:56:38.169Z,2.85
2017-12-19T05:59:04.603Z,2.92
2017-12-19T06:01:31.147Z,2.87
2017-12-19T06:03:57.577Z,2.87
2017-12-19T06:06:24.012Z,2.89
2017-12-19T06:08:50.445Z,2.95
2017-12-19T06:11:16.879Z,2.93
2017-12-19T06:13:44.030Z,2.90
2017-12-19T06:16:10.465Z,2.90
2017-12-19T06:18:36.901Z,2.95
2017-12-19T06:21:03.439Z,2.97
2017-12-19T06:23:29.870Z,2.98
2017-12-19T06:25:56.251Z,3.01
2017-12-19T06:28:22.594Z,2.97
2017-12-19T06:30:49.862Z,2.99
2017-12-19T06:33:16.306Z,2.99
2017-12-19T06:35:42.756Z,3.00
2017-12-19T06:38:09.297Z,3.05
2017-12-19T06:40:35.835Z,3.08
2017-12-19T06:43:02.201Z,3.11
2017-12-19T06:45:28.602Z,3.10
2017-12-19T06:47:55.754Z,3.11
2017-12-19T06:50:22.188Z,3.12
2017-12-19T06:52:48.624Z,3.15
2017-12-19T06:55:15.056Z,3.24
2017-12-19T06:57:41.492Z,3.27
2017-12-19T07:00:07.928Z,3.30
2017-12-19T07:02:34.362Z,3.30
2017-12-19T07:05:01.615Z,3.31
2017-12-19T07:07:28.053Z,3.26
2017-12-19T07:09:54.484Z,3.19
2017-12-19T07:12:20.921Z,3.23
2017-12-19T07:14:47.865Z,3.29
2017-12-19T07:17:14.390Z,3.30
2017-12-19T07:19:40.826Z,3.30
2017-12-19T07:22:07.479Z,3.24
2017-12-19T07:24:33.911Z,3.24
2017-12-19T07:27:00.344Z,3.24
2017-12-19T07:29:27.393Z,3.16
2017-12-19T07:31:53.931Z,3.20
2017-12-19T07:34:20.365Z,3.18
2017-12-19T07:36:46.994Z,3.30
2017-12-19T07:39:13.339Z,3.40
2017-12-19T07:41:39.874Z,3.49
2017-12-19T07:44:06.309Z,3.56
2017-12-19T07:46:32.743Z,3.58
2017-12-19T07:48:59.280Z,3.63
2017-12-19T07:51:25.801Z,3.68
2017-12-19T07:53:52.188Z,3.69
2017-12-19T07:56:18.582Z,3.70
2017-12-19T07:58:45.018Z,3.77
2017-12-19T08:01:11.760Z,3.81
2017-12-19T08:03:38.258Z,3.92
2017-12-19T08:06:04.838Z,4.01
2017-12-19T08:08:31.305Z,3.99
2017-12-19T08:10:57.783Z,4.02
2017-12-19T08:13:24.182Z,4.14
2017-12-19T08:15:50.541Z,4.21
2017-12-19T08:18:16.944Z,4.29
2017-12-19T08:20:43.424Z,4.34
2017-12-19T08:23:09.884Z,4.32
2017-12-19T08:25:36.309Z,4.31
2017-12-19T08:28:02.747Z,4.37
2017-12-19T08:30:29.282Z,4.48
2017-12-19T08:32:55.716Z,4.53
2017-12-19T08:35:22.156Z,4.59
2017-12-19T08:37:48.572Z,4.71
2017-12-19T08:40:15.020Z,4.78
2017-12-19T08:42:41.557Z,4.76
2017-12-19T08:45:07.994Z,4.77
2017-12-19T08:47:34.531Z,4.77
2017-12-19T08:50:00.855Z,4.69
2017-12-19T08:52:27.397Z,4.64
2017-12-19T08:54:53.833Z,4.60
2017-12-19T08:57:20.202Z,4.62
2017-12-19T08:59:46.599Z,4.57
2017-12-19T09:02:13.136Z,4.58
2017-12-19T09:04:39.571Z,4.54
2017-12-19T09:07:06.006Z,4.59
2017-12-19T09:09:32.441Z,4.62
2017-12-19T09:11:58.875Z,4.64
2017-12-19T09:14:25.317Z,4.70
2017-12-19T09:16:51.744Z,4.64
2017-12-19T09:19:18.109Z,4.60
2017-12-19T09:21:44.614Z,4.49
2017-12-19T09:24:11.049Z,4.45
2017-12-19T09:26:37.584Z,4.40
2017-12-19T09:29:03.941Z,4.29
2017-12-19T09:31:30.455Z,4.20
2017-12-19T09:33:56.761Z,4.17
2017-12-19T09:36:23.207Z,4.25
2017-12-19T09:38:49.655Z,4.30
2017-12-19T09:41:16.123Z,4.25
2017-12-19T09:43:42.525Z,4.21
2017-12-19T09:46:08.856Z,4.22
2017-12-19T09:48:35.290Z,4.29
2017-12-19T09:51:01.827Z,4.38
2017-12-19T09:53:28.198Z,4.41
2017-12-19T09:55:54.596Z,4.47
2017-12-19T09:58:21.031Z,4.44
2017-12-19T10:00:47.566Z,4.44
2017-12-19T10:03:14.137Z,4.44
2017-12-19T10:05:40.537Z,4.43
2017-12-19T10:08:06.869Z,4.42
2017-12-19T10:10:33.389Z,4.47
2017-12-19T10:12:59.831Z,4.51
2017-12-19T10:15:26.274Z,4.51
2017-12-19T10:17:52.714Z,4.48
2017-12-19T10:20:19.145Z,4.51
2017-12-19T10:22:45.583Z,4.37
2017-12-19T10:25:12.015Z,4.39
2017-12-19T10:27:38.450Z,4.37
2017-12-19T10:30:04.779Z,4.31
2017-12-19T10:32:31.318Z,4.17
2017-12-19T10:34:57.857Z,4.15
2017-12-19T10:37:24.292Z,4.16
2017-12-19T10:39:50.827Z,4.17
2017-12-19T10:42:17.366Z,4.11
2017-12-19T10:44:43.799Z,4.05
2017-12-19T10:47:10.170Z,4.03
